Terminal Aerodrome Forecast
Issued by NWS

Home | Current Version | Previous Version | Text Only | Print | Product List | Glossary On
Versions: 1 2 3 4 5 6 7 8 9 10 11 12 13 14 15 16 17 18 19 20 21 22 23 24 25 26 27 28 29 30 31 32 33
000
FTUS45 KGJT 041509 AAB
TAFDRO
TAF AMD
KDRO 041509Z 0415/0512 05006KT P6SM BKN005
      TEMPO 0415/0416 3SM BR OVC001
     FM041800 22008KT P6SM SKC
     FM050100 07005KT P6SM SKC
     FM050700 VRB03KT P6SM FEW005=

USA.gov is the U.S. government's official web portal to all federal, state and local government web resources and services.